Arlington, Texas
Current Conditions -  °F | °C
As of 6:15 AM on Friday 24 Oct 2014 (Local Time) from KGPM Reporting Station
Scattered Clouds Scattered Clouds  
Wind Chill: 62°   Ceiling: Unl
Heat Index: 62°   Visibility: 10mi
Dew Point: 57°   Wind: 0mph
Humidity: 82%   Direction: NA
Pressure: 30.14"   Gusts: NA
Location:  32.74°N, 97.11°W
Report Text: KGPM 241115Z AUTO 00000KT 10SM SCT065 17/14 A3014 RMK AO2 T01680137
Loading
Personal Weather Stations






























Interactive Weather Map
Tropical Storm Tracking
New forecast layout! Learn more

10-Day Weather Forecast

Advertisements
Track Severe Weather on mobile